Main page
METAR-TAF:

METAR-TAF

Airports :

Luxembourg Findel Airport

Luxembourg, Luxembourg

latitude: 49-37N, longitude: 006-13E, elevation: 376 m

Current weather observation

The report was made 29 minutes ago, at 04:50 UTC
Wind 10 kt from the Northeast
Temperature 12°C
Humidity 47%
Pressure 1027 hPa
Visibility 10 km or more
no clouds below 1500 m and no cumulonimbus

METAR: ELLX 200450Z 04010KT CAVOK 12/01 Q1027 NOSIG

Time: 07:19 (05:19 UTC)

Forecast

The report was made 6 hours and 19 minutes ago, at 23:00 UTC
Forecast valid from 20 at 00 UTC to 20 at 06 UTC
Wind 9 kt from the Northeast
Visibility 10 km or more
no clouds below 1500 m and no cumulonimbus

TAF: ELLX 192300Z 2000/2006 04009KT CAVOK

Weather observations and forecasts of more than 4000 airports (METAR and TAF reports).

The available stations are represented by yellow and red dots on the map.

Hover mouse over dot to see the name of the station.

Then click to see weather observations and forecasts.

To change the map : click on the green buttons with a black cross to zoom in, on the green button with a dash to zoom out, or on the green arrows for adjacent maps.


METAR-TAF: